Capitol Logistics 1140


LSGG
Geneve-Cointrin Airport
Geneva, CH
EBLG
Liège Airport
Liege, BE

Activity Log

Date Flight Route Aircraft Duration
12/02/2019 CPX1140 Not Available B738 1h 11m
10/26/2019 CPX740 N0438F300 DIPI6A DIPIR UV25 ARBOS UL47 EPL UM624 DIK UN852 GESLO GESL4D B738 1h 05m
10/02/2019 CPX740 N0442F300 DIPI6A DIPIR UV25 ARBOS UL47 IXILU UN853 DIK UN852 GESLO GESL4D B738 1h 18m

Route Details

Aircraft Information
Primary: Boeing 737-800BCF
Backup: Not Available
Route Data
Distance: 283nm
Sched. Duration: 1h 00m
Avg. Duration: 1h 11m (+12m)
Times Flown: 3
Recm'd Route: Not Available
Planned Altitude: 32,000ft
Origin Wx: LSGG 181620Z 29004KT 9999 BKN050 09/M02 Q1029 NOSIG
Dest. Wx: EBLG 181620Z 23015KT 9999 FEW022 SCT042 07/01 Q1021 NOSIG
Notes:

Financial History
Total Freight: 74,448lbs
Average Load: 24,816lbs/flt
Fuel Used: 18,696lbs
Avg. Fuel Used: 6,232lbs/flt
Fuel Expense: $17,200
Avg. Fuel Expense: $5,733
Avg. Fuel Cost: $0.92/lbs
Total Gross Income: $153,648
Pilot Pay: $697
Total Expenses: $16,750
Total Revenue: $118,883
Average Revenue: $51,216.00